Time;durP1;ratioP1;P1;durP2;ratioP2;P2;SDS_P1;SDS_P2;PMS_P1;PMS_P2;Temp;Humidity;BMP_temperature;BMP_pressure;BME280_temperature;BME280_humidity;BME280_pressure;Samples;Min_cycle;Max_cycle;Signal;HPM_P1;HPM_P2
2023/07/09 00:00:02;;;;;;;19.58;2.17;;;;;;;14.34;100.00;100292.75;4936886;29;20537;-81
2023/07/09 00:02:29;;;;;;;12.13;2.47;;;;;;;14.40;100.00;100294.72;4952301;28;20096;-82
2023/07/09 00:04:54;;;;;;;14.60;2.17;;;;;;;14.45;100.00;100289.72;4952833;29;20031;-80
2023/07/09 00:07:32;;;;;;;13.77;2.67;;;;;;;14.50;100.00;100290.03;4952073;28;20652;-82
2023/07/09 00:09:59;;;;;;;16.48;2.72;;;;;;;14.50;100.00;100294.50;4951076;28;20031;-81
2023/07/09 00:12:25;;;;;;;19.20;2.90;;;;;;;14.53;100.00;100288.84;4952443;29;20062;-81
2023/07/09 00:14:51;;;;;;;13.25;1.95;;;;;;;14.52;100.00;100279.22;4952429;28;20034;-80
2023/07/09 00:17:33;;;;;;;16.45;2.15;;;;;;;14.54;100.00;100276.38;4952801;29;20035;-81
2023/07/09 00:19:59;;;;;;;19.17;2.35;;;;;;;14.50;100.00;100281.19;4952298;29;20034;-81
2023/07/09 00:22:26;;;;;;;20.73;2.75;;;;;;;14.46;100.00;100272.75;4951945;28;20106;-81
2023/07/09 00:24:56;;;;;;;14.65;2.33;;;;;;;14.38;100.00;100281.59;4942032;29;20038;-79
2023/07/09 00:27:27;;;;;;;11.98;2.60;;;;;;;14.34;100.00;100279.44;4951879;29;20027;-80
2023/07/09 00:29:53;;;;;;;18.58;2.80;;;;;;;14.28;100.00;100280.97;4936764;29;20117;-80
2023/07/09 00:32:24;;;;;;;12.55;2.78;;;;;;;14.27;100.00;100284.63;4919362;29;20493;-80
2023/07/09 00:34:53;;;;;;;13.55;2.72;;;;;;;14.26;100.00;100285.63;4934978;29;20046;-81
2023/07/09 00:37:21;;;;;;;19.55;2.67;;;;;;;14.28;100.00;100288.97;4951224;29;20038;-80
2023/07/09 00:39:48;;;;;;;16.70;2.20;;;;;;;14.26;100.00;100291.78;4950922;29;20023;-81
2023/07/09 00:42:20;;;;;;;14.02;2.10;;;;;;;14.25;100.00;100295.44;4951157;28;20397;-82
2023/07/09 00:44:51;;;;;;;13.18;2.58;;;;;;;14.19;100.00;100282.81;4951223;28;20031;-81
2023/07/09 00:47:44;;;;;;;15.18;2.80;;;;;;;14.21;100.00;100287.97;4935072;28;20035;-81
2023/07/09 00:50:16;;;;;;;16.70;2.55;;;;;;;14.16;100.00;100293.81;4943042;29;20031;-81
2023/07/09 00:52:49;;;;;;;16.88;3.08;;;;;;;14.13;100.00;100289.69;4966634;28;20027;-82
2023/07/09 00:55:21;;;;;;;21.25;3.17;;;;;;;14.11;100.00;100289.00;4947835;28;20054;-82
2023/07/09 00:57:56;;;;;;;16.27;2.33;;;;;;;14.10;100.00;100292.66;4951361;28;20477;-82
2023/07/09 01:00:27;;;;;;;20.73;2.85;;;;;;;14.12;100.00;100290.69;4916776;28;20395;-81
2023/07/09 01:02:54;;;;;;;19.67;4.00;;;;;;;14.13;100.00;100288.84;4967136;28;20035;-81
2023/07/09 01:05:19;;;;;;;15.57;2.55;;;;;;;14.17;100.00;100294.66;4966578;28;20039;-81
2023/07/09 01:07:48;;;;;;;14.52;3.00;;;;;;;14.20;100.00;100292.47;4961389;28;20110;-81
2023/07/09 01:10:18;;;;;;;20.33;2.35;;;;;;;14.27;100.00;100293.44;4964252;28;20031;-82
2023/07/09 01:12:47;;;;;;;20.33;2.67;;;;;;;14.35;100.00;100305.06;4950936;28;20041;-80
2023/07/09 01:15:15;;;;;;;12.77;2.45;;;;;;;14.34;100.00;100292.75;4963619;28;20102;-81
2023/07/09 01:17:44;;;;;;;10.75;2.10;;;;;;;14.36;100.00;100291.59;4967140;28;20549;-81
2023/07/09 01:20:19;;;;;;;16.05;2.25;;;;;;;14.41;100.00;100288.41;4936649;29;20074;-81
2023/07/09 01:22:48;;;;;;;15.82;2.90;;;;;;;14.35;100.00;100289.09;4951127;28;20042;-81
2023/07/09 01:25:14;;;;;;;19.17;2.70;;;;;;;14.26;100.00;100293.59;4966690;28;20110;-81
2023/07/09 01:27:45;;;;;;;17.48;3.20;;;;;;;14.13;100.00;100288.84;4950286;28;20081;-81
2023/07/09 01:30:22;;;;;;;13.75;2.25;;;;;;;14.00;100.00;100292.88;4966343;28;20077;-81
2023/07/09 01:32:50;;;;;;;14.23;2.47;;;;;;;14.00;100.00;100292.03;4948162;28;20040;-81
2023/07/09 01:35:21;;;;;;;12.55;1.67;;;;;;;14.06;100.00;100288.72;4937068;29;20102;-80
2023/07/09 01:37:48;;;;;;;14.60;2.40;;;;;;;14.09;100.00;100298.16;4952788;28;20044;-81
2023/07/09 01:40:16;;;;;;;9.90;1.80;;;;;;;14.17;100.00;100292.81;4970431;28;20027;-81
2023/07/09 01:42:42;;;;;;;13.80;2.38;;;;;;;14.19;100.00;100290.81;4969889;28;20035;-81
2023/07/09 01:45:12;;;;;;;9.00;2.30;;;;;;;14.27;100.00;100289.94;4970616;28;20042;-79
2023/07/09 01:47:39;;;;;;;13.07;2.70;;;;;;;14.35;100.00;100295.22;4957918;28;20058;-80
2023/07/09 01:50:06;;;;;;;19.27;2.97;;;;;;;14.39;100.00;100293.91;4970133;28;20081;-81
2023/07/09 01:52:33;;;;;;;17.50;3.22;;;;;;;14.40;100.00;100289.38;4954596;29;20162;-80
2023/07/09 01:55:02;;;;;;;25.10;2.95;;;;;;;14.36;100.00;100291.59;4939318;29;20512;-80
2023/07/09 01:57:33;;;;;;;20.80;2.75;;;;;;;14.32;100.00;100287.59;4969663;28;20122;-80
2023/07/09 02:00:10;;;;;;;13.02;2.35;;;;;;;14.26;100.00;100291.78;4954041;28;20027;-80
2023/07/09 02:02:47;;;;;;;26.58;3.42;;;;;;;14.20;100.00;100295.13;4935094;29;20897;-80
2023/07/09 02:05:18;;;;;;;21.63;2.92;;;;;;;14.25;100.00;100292.78;4953938;28;20036;-81
2023/07/09 02:07:44;;;;;;;20.13;3.13;;;;;;;14.30;100.00;100288.78;4954644;28;20037;-80
2023/07/09 02:10:11;;;;;;;21.75;3.58;;;;;;;14.34;100.00;100280.28;4970893;28;20105;-80
2023/07/09 02:12:37;;;;;;;20.42;4.45;;;;;;;14.41;100.00;100287.56;4935193;29;20027;-80
2023/07/09 02:15:03;;;;;;;20.92;3.53;;;;;;;14.44;100.00;100295.19;4954585;28;20027;-81
2023/07/09 02:17:30;;;;;;;16.58;2.95;;;;;;;14.47;100.00;100295.69;4937815;29;20425;-81
2023/07/09 02:19:56;;;;;;;26.00;3.67;;;;;;;14.51;100.00;100281.03;4921591;29;20039;-81
2023/07/09 02:22:22;;;;;;;22.40;3.47;;;;;;;14.54;100.00;100274.53;4952726;28;20385;-80
2023/07/09 02:24:48;;;;;;;19.63;3.72;;;;;;;14.57;100.00;100276.81;4968828;28;20094;-80
2023/07/09 02:27:17;;;;;;;15.55;3.17;;;;;;;14.58;100.00;100264.38;4945964;28;20027;-80
2023/07/09 02:29:43;;;;;;;19.05;3.75;;;;;;;14.58;100.00;100261.72;4924385;28;20058;-80
2023/07/09 02:32:13;;;;;;;15.20;2.88;;;;;;;14.59;100.00;100269.50;4933710;29;20493;-80
2023/07/09 02:34:39;;;;;;;10.73;2.53;;;;;;;14.57;100.00;100268.84;4938889;28;20482;-80
2023/07/09 02:37:04;;;;;;;14.98;2.72;;;;;;;14.65;100.00;100265.34;4952577;28;20027;-80
2023/07/09 02:39:30;;;;;;;19.60;3.28;;;;;;;14.67;100.00;100263.31;4967560;28;20117;-80
2023/07/09 02:41:56;;;;;;;16.98;2.38;;;;;;;14.72;100.00;100260.97;4951043;28;20066;-80
2023/07/09 02:44:23;;;;;;;21.65;3.53;;;;;;;14.74;100.00;100263.44;4937350;28;20043;-80
2023/07/09 02:46:49;;;;;;;18.95;4.15;;;;;;;14.73;100.00;100253.81;4938242;29;20039;-80
2023/07/09 02:49:15;;;;;;;24.30;3.85;;;;;;;14.68;100.00;100251.69;4936715;29;20042;-81
2023/07/09 02:51:41;;;;;;;19.90;4.53;;;;;;;14.60;100.00;100249.06;4952627;28;20155;-81
2023/07/09 02:54:07;;;;;;;19.30;3.22;;;;;;;14.54;100.00;100237.28;4919556;29;20482;-80
2023/07/09 02:56:33;;;;;;;15.88;3.58;;;;;;;14.51;100.00;100246.47;4952445;29;20054;-80
2023/07/09 02:58:59;;;;;;;23.52;3.97;;;;;;;14.50;100.00;100254.59;4936450;28;20042;-81
2023/07/09 03:01:26;;;;;;;15.77;3.05;;;;;;;14.49;100.00;100252.97;4965892;28;20473;-80
2023/07/09 03:03:59;;;;;;;19.15;2.65;;;;;;;14.49;100.00;100244.97;4932722;29;20466;-80
2023/07/09 03:06:26;;;;;;;16.95;2.63;;;;;;;14.55;100.00;100241.63;4940245;29;20067;-80
2023/07/09 03:08:52;;;;;;;9.27;2.28;;;;;;;14.59;100.00;100240.25;4967566;28;20038;-80
2023/07/09 03:11:19;;;;;;;10.75;2.70;;;;;;;14.62;100.00;100247.88;4944911;28;20621;-80
2023/07/09 03:13:45;;;;;;;15.35;2.53;;;;;;;14.62;100.00;100241.75;4930225;29;20070;-80
2023/07/09 03:16:11;;;;;;;13.00;2.83;;;;;;;14.61;100.00;100248.91;4919642;29;20121;-81
2023/07/09 03:18:37;;;;;;;25.27;3.22;;;;;;;14.59;100.00;100247.41;4953101;28;20508;-80
2023/07/09 03:21:04;;;;;;;16.75;3.03;;;;;;;14.59;100.00;100247.41;4930484;29;20089;-80
2023/07/09 03:23:30;;;;;;;22.70;2.58;;;;;;;14.57;100.00;100246.75;4929190;29;20103;-80
2023/07/09 03:25:57;;;;;;;23.10;3.28;;;;;;;14.54;100.00;100247.91;4935145;29;20035;-80
2023/07/09 03:28:23;;;;;;;19.23;2.72;;;;;;;14.46;100.00;100246.16;4942851;29;20079;-80
2023/07/09 03:30:49;;;;;;;16.23;2.60;;;;;;;14.36;100.00;100246.38;4950689;29;20074;-81
2023/07/09 03:33:16;;;;;;;16.25;2.92;;;;;;;14.29;100.00;100239.25;4966967;28;20031;-80
2023/07/09 03:35:43;;;;;;;18.45;2.65;;;;;;;14.23;100.00;100248.75;4948423;28;20079;-80
2023/07/09 03:38:10;;;;;;;17.33;2.40;;;;;;;14.23;100.00;100238.13;4946087;28;20031;-80
2023/07/09 03:40:37;;;;;;;11.30;2.65;;;;;;;14.18;100.00;100248.44;4967314;28;20035;-80
2023/07/09 03:43:08;;;;;;;12.23;2.60;;;;;;;14.20;100.00;100235.81;4964394;28;20482;-80
2023/07/09 03:45:35;;;;;;;18.98;2.75;;;;;;;14.10;100.00;100250.16;4963685;28;20040;-81
2023/07/09 03:48:02;;;;;;;21.08;2.92;;;;;;;14.06;100.00;100240.88;4921338;29;20397;-80
2023/07/09 03:50:27;;;;;;;10.32;2.25;;;;;;;14.11;100.00;100249.13;4967217;28;20148;-80
2023/07/09 03:52:53;;;;;;;13.85;2.72;;;;;;;14.18;100.00;100246.63;4935558;29;20503;-80
2023/07/09 03:55:20;;;;;;;10.73;2.10;;;;;;;14.21;100.00;100242.78;4949125;29;20062;-81
2023/07/09 03:57:47;;;;;;;9.15;2.17;;;;;;;14.17;100.00;100242.31;4951545;28;20042;-80
2023/07/09 04:00:14;;;;;;;17.67;2.67;;;;;;;14.17;100.00;100255.63;4951169;28;20047;-80
2023/07/09 04:02:45;;;;;;;9.75;2.25;;;;;;;14.13;100.00;100243.66;4954919;28;20114;-80
2023/07/09 04:05:11;;;;;;;12.27;2.70;;;;;;;14.12;100.00;100244.66;4953296;28;20031;-80
2023/07/09 04:07:38;;;;;;;19.13;3.13;;;;;;;14.15;100.00;100241.66;4919324;28;20447;-80
2023/07/09 04:10:06;;;;;;;16.67;2.85;;;;;;;14.16;100.00;100239.84;4941003;29;20043;-80
2023/07/09 04:12:32;;;;;;;11.50;2.45;;;;;;;14.10;100.00;100239.53;4942094;28;20169;-80
2023/07/09 04:14:58;;;;;;;17.30;3.00;;;;;;;14.07;100.00;100242.53;4964881;28;20632;-80
2023/07/09 04:17:24;;;;;;;14.00;2.75;;;;;;;14.07;100.00;100231.06;4934147;28;20042;-80
2023/07/09 04:19:51;;;;;;;11.32;2.80;;;;;;;14.10;100.00;100228.06;4933934;29;20046;-80
2023/07/09 04:22:17;;;;;;;20.00;3.08;;;;;;;14.11;100.00;100227.06;4950358;28;20498;-81
2023/07/09 04:24:44;;;;;;;9.48;2.30;;;;;;;14.17;100.00;100225.53;4951949;28;20376;-81
2023/07/09 04:27:10;;;;;;;12.48;2.95;;;;;;;14.18;100.00;100228.03;4946900;28;20050;-80
2023/07/09 04:29:38;;;;;;;11.82;2.67;;;;;;;14.14;100.00;100226.72;4966990;28;20027;-79
2023/07/09 04:32:13;;;;;;;12.23;2.42;;;;;;;14.16;100.00;100232.66;4950706;28;20031;-79
2023/07/09 04:34:39;;;;;;;12.45;2.63;;;;;;;14.18;100.00;100233.34;4934444;28;20074;-80
2023/07/09 04:37:10;;;;;;;18.48;2.70;;;;;;;14.29;100.00;100224.13;4959973;28;20034;-80
2023/07/09 04:39:37;;;;;;;9.95;2.40;;;;;;;14.32;100.00;100215.81;4960804;28;20031;-79
2023/07/09 04:42:05;;;;;;;10.68;2.58;;;;;;;14.36;100.00;100221.63;4966851;28;20031;-79
2023/07/09 04:44:31;;;;;;;10.65;2.83;;;;;;;14.38;100.00;100227.59;4935923;29;20034;-79
2023/07/09 04:46:57;;;;;;;8.65;2.58;;;;;;;14.41;100.00;100221.09;4954862;28;20086;-81
2023/07/09 04:49:23;;;;;;;13.02;2.88;;;;;;;14.44;100.00;100228.72;4966235;28;20118;-80
2023/07/09 04:51:49;;;;;;;13.85;2.50;;;;;;;14.43;100.00;100216.44;4950379;29;20050;-80
2023/07/09 04:54:15;;;;;;;9.48;2.33;;;;;;;14.43;100.00;100208.47;4953655;28;20046;-81
2023/07/09 04:56:44;;;;;;;15.43;3.60;;;;;;;14.47;100.00;100212.41;4939042;28;20516;-80
2023/07/09 04:59:11;;;;;;;17.27;3.13;;;;;;;14.49;100.00;100213.88;4946682;28;20556;-80
2023/07/09 05:01:38;;;;;;;14.02;3.15;;;;;;;14.51;100.00;100211.03;4939593;28;20035;-80
2023/07/09 05:04:04;;;;;;;12.23;3.15;;;;;;;14.51;100.00;100209.22;4954727;28;20062;-80
2023/07/09 05:06:29;;;;;;;18.70;4.10;;;;;;;14.48;100.00;100201.59;4953760;28;20393;-81
2023/07/09 05:08:55;;;;;;;16.42;3.17;;;;;;;14.47;100.00;100213.25;4954757;28;20098;-80
2023/07/09 05:11:21;;;;;;;19.55;3.92;;;;;;;14.43;100.00;100203.13;4975427;28;20544;-80
2023/07/09 05:13:47;;;;;;;18.95;3.17;;;;;;;14.46;100.00;100200.94;4942303;28;20050;-81
2023/07/09 05:16:13;;;;;;;18.95;4.03;;;;;;;14.46;100.00;100202.78;4923866;29;20035;-81
2023/07/09 05:18:39;;;;;;;23.20;3.72;;;;;;;14.46;100.00;100192.97;4956080;28;20038;-80
2023/07/09 05:21:05;;;;;;;17.30;3.08;;;;;;;14.45;100.00;100191.31;4921518;28;20074;-81
2023/07/09 05:23:30;;;;;;;20.48;3.17;;;;;;;14.43;100.00;100174.69;4939987;28;20070;-80
2023/07/09 05:26:01;;;;;;;18.45;2.75;;;;;;;14.49;100.00;100175.84;4955329;28;20090;-80
2023/07/09 05:28:28;;;;;;;18.60;3.47;;;;;;;14.49;100.00;100171.34;4974214;28;20034;-81
2023/07/09 05:30:54;;;;;;;22.58;4.00;;;;;;;14.49;100.00;100170.53;4939871;28;20035;-79
2023/07/09 05:33:20;;;;;;;16.00;3.10;;;;;;;14.47;100.00;100169.88;4941915;28;20041;-80
2023/07/09 05:35:47;;;;;;;20.15;3.10;;;;;;;14.48;100.00;100168.84;4976090;28;20031;-81
2023/07/09 05:38:13;;;;;;;18.95;3.20;;;;;;;14.50;100.00;100165.03;4941645;28;20073;-79
2023/07/09 05:40:39;;;;;;;21.02;3.20;;;;;;;14.48;100.00;100159.03;4975245;28;20039;-80
2023/07/09 05:43:05;;;;;;;20.55;3.58;;;;;;;14.50;100.00;100162.38;4944742;28;20093;-80
2023/07/09 05:45:32;;;;;;;20.40;3.40;;;;;;;14.53;100.00;100166.50;4970450;28;20043;-79
2023/07/09 05:48:01;;;;;;;20.15;3.05;;;;;;;14.57;100.00;100159.81;4973075;28;20043;-79
2023/07/09 05:50:28;;;;;;;13.25;2.63;;;;;;;14.57;100.00;100164.31;4957063;28;20041;-81
2023/07/09 05:52:54;;;;;;;28.95;3.92;;;;;;;14.60;100.00;100155.97;4957544;28;20078;-78
2023/07/09 05:55:20;;;;;;;26.00;3.58;;;;;;;14.59;100.00;100151.66;4972042;28;20065;-80
2023/07/09 05:57:46;;;;;;;24.60;3.80;;;;;;;14.61;100.00;100141.66;4955900;28;20481;-80
2023/07/09 06:00:12;;;;;;;18.70;2.95;;;;;;;14.59;100.00;100141.84;4956782;28;20039;-81
2023/07/09 06:02:42;;;;;;;22.92;3.75;;;;;;;14.59;100.00;100147.16;4953262;28;20038;-81
2023/07/09 06:05:11;;;;;;;20.38;3.42;;;;;;;14.61;100.00;100153.13;4973579;28;20037;-81
2023/07/09 06:07:38;;;;;;;22.85;3.47;;;;;;;14.64;100.00;100142.16;4970295;28;20045;-81
2023/07/09 06:10:07;;;;;;;20.73;3.30;;;;;;;14.67;100.00;100146.28;4943101;28;20039;-81
2023/07/09 06:12:33;;;;;;;18.02;3.20;;;;;;;14.67;100.00;100151.59;4951327;28;20034;-81
2023/07/09 06:14:59;;;;;;;21.10;3.78;;;;;;;14.68;100.00;100152.44;4956425;28;20074;-81
2023/07/09 06:17:25;;;;;;;23.77;3.05;;;;;;;14.69;100.00;100144.25;4955618;28;20110;-82
2023/07/09 06:19:51;;;;;;;15.43;3.05;;;;;;;14.71;100.00;100149.41;4951266;28;20109;-81
2023/07/09 06:22:17;;;;;;;20.30;3.33;;;;;;;14.74;100.00;100144.56;4954050;28;20089;-81
2023/07/09 06:24:44;;;;;;;28.10;3.25;;;;;;;14.76;100.00;100145.19;4972042;28;20034;-81
2023/07/09 06:27:11;;;;;;;19.55;3.30;;;;;;;14.74;100.00;100149.03;4976761;28;20454;-80
2023/07/09 06:29:36;;;;;;;18.38;3.65;;;;;;;14.78;100.00;100153.00;4972867;28;20453;-79
2023/07/09 06:32:04;;;;;;;17.20;2.90;;;;;;;14.80;100.00;100159.00;4940284;28;20106;-80
2023/07/09 06:34:30;;;;;;;23.05;3.55;;;;;;;14.80;100.00;100153.69;4955620;28;20034;-79
2023/07/09 06:36:57;;;;;;;25.05;3.28;;;;;;;14.81;100.00;100142.03;4956050;28;20038;-79
2023/07/09 06:39:23;;;;;;;24.33;3.53;;;;;;;14.78;100.00;100153.00;4960062;28;20030;-81
2023/07/09 06:41:50;;;;;;;14.82;3.28;;;;;;;14.81;100.00;100213.84;4972286;28;20066;-81
2023/07/09 06:44:54;;;;;;;7.80;1.92;;;;;;;14.51;100.00;100213.69;4930326;29;20094;-80
2023/07/09 06:47:20;;;;;;;9.32;0.60;;;;;;;14.13;100.00;100223.22;4916107;29;20643;-80
2023/07/09 06:49:45;;;;;;;2.83;0.80;;;;;;;13.74;100.00;100227.50;4960584;28;20512;-80
2023/07/09 06:52:11;;;;;;;7.95;1.08;;;;;;;13.57;100.00;100218.75;4940075;28;20039;-79
2023/07/09 06:54:37;;;;;;;6.38;0.70;;;;;;;13.49;100.00;100227.53;4954329;28;20043;-79
2023/07/09 06:57:04;;;;;;;7.15;0.63;;;;;;;13.41;100.00;100248.78;4954958;28;20030;-80
2023/07/09 06:59:29;;;;;;;2.30;0.50;;;;;;;13.37;100.00;100245.66;4971160;28;20038;-79
2023/07/09 07:01:55;;;;;;;1.70;0.40;;;;;;;13.31;100.00;100229.56;4955382;28;20031;-80
2023/07/09 07:04:21;;;;;;;1.48;0.40;;;;;;;13.32;100.00;100228.56;4954016;28;20031;-80
2023/07/09 07:06:47;;;;;;;3.95;0.70;;;;;;;13.34;100.00;100231.88;4967581;28;20390;-80
2023/07/09 07:09:13;;;;;;;0.55;0.28;;;;;;;13.38;100.00;100234.03;4936878;28;20655;-80
2023/07/09 07:11:39;;;;;;;2.33;0.17;;;;;;;13.40;100.00;100231.22;4951215;28;20039;-80
2023/07/09 07:14:04;;;;;;;0.93;0.20;;;;;;;13.36;100.00;100217.44;4967132;28;20049;-80
2023/07/09 07:16:30;;;;;;;2.03;0.38;;;;;;;13.26;100.00;100222.94;4952020;28;20430;-77
2023/07/09 07:18:56;;;;;;;0.80;0.30;;;;;;;13.11;100.00;100212.16;4966791;28;20034;-77
2023/07/09 07:21:22;;;;;;;1.70;0.28;;;;;;;13.03;100.00;100206.84;4954270;28;20140;-80
2023/07/09 07:23:48;;;;;;;1.08;0.20;;;;;;;12.97;100.00;100199.56;4954926;28;20043;-80
2023/07/09 07:26:13;;;;;;;5.28;0.50;;;;;;;12.96;100.00;100221.78;4955347;28;20038;-79
2023/07/09 07:28:40;;;;;;;2.40;0.35;;;;;;;12.84;100.00;100222.13;4975057;28;20039;-79
2023/07/09 07:31:09;;;;;;;1.90;0.30;;;;;;;12.77;100.00;100213.97;4954698;28;20042;-79
2023/07/09 07:33:36;;;;;;;1.90;0.32;;;;;;;12.72;100.00;100212.81;4954765;28;20030;-80
2023/07/09 07:36:05;;;;;;;2.38;0.52;;;;;;;12.67;100.00;100223.94;4977706;28;20062;-79
2023/07/09 07:38:31;;;;;;;1.63;0.15;;;;;;;12.51;100.00;100222.06;4967790;28;20080;-79
2023/07/09 07:40:57;;;;;;;7.60;0.50;;;;;;;12.49;100.00;100219.59;4954547;28;20027;-79
2023/07/09 07:43:22;;;;;;;1.38;0.20;;;;;;;12.52;100.00;100206.00;4951649;28;20031;-80
2023/07/09 07:45:49;;;;;;;1.30;0.32;;;;;;;12.56;100.00;100210.97;4965960;28;20035;-80
2023/07/09 07:48:14;;;;;;;2.05;0.35;;;;;;;12.52;100.00;100211.31;4979130;28;20057;-80
2023/07/09 07:50:40;;;;;;;3.35;0.30;;;;;;;12.51;100.00;100214.13;4977123;28;20488;-80
2023/07/09 07:53:08;;;;;;;0.50;0.10;;;;;;;12.44;100.00;100211.28;4951535;28;20114;-80
2023/07/09 07:55:35;;;;;;;3.15;0.50;;;;;;;12.49;100.00;100205.50;4930413;29;20043;-81
2023/07/09 07:58:03;;;;;;;1.23;0.30;;;;;;;12.59;100.00;100218.59;4955706;28;20086;-81
2023/07/09 08:00:30;;;;;;;7.68;0.40;;;;;;;12.91;100.00;100219.63;4952322;28;20122;-79
2023/07/09 08:02:56;;;;;;;0.75;0.28;;;;;;;13.21;100.00;100212.00;4949433;28;20121;-79
2023/07/09 08:05:23;;;;;;;1.92;0.20;;;;;;;13.52;100.00;100207.84;4951256;28;20091;-81
2023/07/09 08:07:49;;;;;;;1.13;0.30;;;;;;;13.79;100.00;100199.63;4948809;28;20544;-80
2023/07/09 08:10:16;;;;;;;2.78;0.20;;;;;;;14.05;100.00;100194.03;4939843;28;20089;-81
2023/07/09 08:12:41;;;;;;;1.08;0.20;;;;;;;14.23;100.00;100187.63;4940453;29;20031;-81
2023/07/09 08:15:08;;;;;;;1.45;0.43;;;;;;;14.47;100.00;100189.31;4952649;28;20143;-80
2023/07/09 08:17:34;;;;;;;1.20;0.22;;;;;;;14.63;100.00;100192.84;4953797;28;20031;-81
2023/07/09 08:20:00;;;;;;;2.10;0.30;;;;;;;14.76;100.00;100195.75;4950162;29;20410;-81
2023/07/09 08:22:26;;;;;;;0.45;0.20;;;;;;;14.87;100.00;100191.06;4971303;28;20500;-80
2023/07/09 08:24:52;;;;;;;1.98;0.40;;;;;;;14.89;100.00;100186.38;4937654;28;20043;-80
2023/07/09 08:27:18;;;;;;;1.00;0.20;;;;;;;15.05;100.00;100195.22;4954283;28;20548;-80
2023/07/09 08:29:45;;;;;;;0.95;0.20;;;;;;;15.20;100.00;100190.75;4966945;28;20530;-78
2023/07/09 08:32:11;;;;;;;1.05;0.30;;;;;;;15.32;100.00;100180.47;4953622;28;20038;-78
2023/07/09 08:34:39;;;;;;;1.17;0.25;;;;;;;15.42;100.00;100187.38;4951984;28;20039;-79
2023/07/09 08:37:07;;;;;;;1.48;0.20;;;;;;;15.53;100.00;100189.56;4968507;28;20114;-80
2023/07/09 08:39:33;;;;;;;1.10;0.15;;;;;;;15.63;100.00;100190.16;4956287;28;20066;-80
2023/07/09 08:42:03;;;;;;;0.75;0.20;;;;;;;15.66;100.00;100190.75;4952335;29;20047;-79
2023/07/09 08:45:00;;;;;;;1.58;0.30;;;;;;;15.67;100.00;100197.75;4939187;28;20038;-80
2023/07/09 08:47:43;;;;;;;1.40;0.30;;;;;;;15.78;100.00;100196.47;4952138;28;20036;-80
2023/07/09 08:50:14;;;;;;;0.80;0.20;;;;;;;15.87;100.00;100204.19;4961381;28;20039;-81
2023/07/09 08:52:43;;;;;;;1.27;0.20;;;;;;;16.06;100.00;100201.97;4952235;28;20083;-81
2023/07/09 08:55:16;;;;;;;0.20;0.20;;;;;;;16.17;100.00;100197.16;4951659;29;20055;-80
2023/07/09 08:57:49;;;;;;;1.38;0.20;;;;;;;16.26;100.00;100190.69;4951012;29;20054;-81
2023/07/09 09:00:22;;;;;;;1.00;0.20;;;;;;;16.32;100.00;100187.31;4964623;28;20035;-80
2023/07/09 09:02:51;;;;;;;1.42;0.30;;;;;;;16.31;100.00;100184.81;4941843;29;20035;-80
2023/07/09 09:05:22;;;;;;;0.82;0.28;;;;;;;16.41;100.00;100180.00;4945385;28;20039;-80
2023/07/09 09:07:58;;;;;;;1.27;0.35;;;;;;;16.50;100.00;100191.34;4957435;28;20491;-80
2023/07/09 09:10:30;;;;;;;;;;;;;;;16.55;100.00;100196.13;4962547;28;20134;-80
2023/07/09 09:13:09;;;;;;;1.77;0.20;;;;;;;16.53;100.00;100192.84;4985090;28;20518;-79
2023/07/09 09:15:39;;;;;;;3.47;0.20;;;;;;;16.48;100.00;100194.22;4952259;28;20023;-80
2023/07/09 09:18:18;;;;;;;0.98;0.30;;;;;;;16.45;100.00;100191.13;4924074;28;20034;-79
2023/07/09 09:20:52;;;;;;;0.73;0.15;;;;;;;16.39;100.00;100194.56;4965447;28;20041;-79
2023/07/09 09:23:18;;;;;;;2.15;0.47;;;;;;;16.42;100.00;100192.31;4933727;28;20039;-80
2023/07/09 09:25:51;;;;;;;2.38;0.30;;;;;;;16.61;100.00;100195.38;4953270;28;20500;-80
2023/07/09 09:28:17;;;;;;;8.05;0.73;;;;;;;16.78;100.00;100195.94;4965164;28;20045;-79
2023/07/09 09:30:43;;;;;;;2.17;0.43;;;;;;;16.97;100.00;100191.81;4943924;28;20667;-79
2023/07/09 09:33:14;;;;;;;4.18;0.57;;;;;;;17.04;100.00;100197.19;4971223;28;20089;-80
2023/07/09 09:35:43;;;;;;;3.40;0.40;;;;;;;16.97;100.00;100196.31;4948657;28;20042;-80
2023/07/09 09:38:11;;;;;;;2.72;0.35;;;;;;;16.91;100.00;100208.59;4953089;28;20114;-79
2023/07/09 09:40:38;;;;;;;4.03;0.60;;;;;;;16.81;100.00;100208.06;4948724;28;20031;-80
2023/07/09 09:43:31;;;;;;;1.73;0.50;;;;;;;16.77;100.00;100206.81;4959338;28;20523;-81
2023/07/09 09:46:00;;;;;;;2.80;0.35;;;;;;;16.72;100.00;100207.41;4937708;28;20046;-80
2023/07/09 09:48:31;;;;;;;3.50;0.52;;;;;;;16.91;100.00;100203.25;4952874;28;20046;-81
2023/07/09 09:51:01;;;;;;;2.78;0.55;;;;;;;17.05;100.00;100206.84;4957127;28;20034;-79
2023/07/09 09:53:29;;;;;;;2.95;0.43;;;;;;;17.12;100.00;100204.25;4967308;28;20043;-79
2023/07/09 09:55:56;;;;;;;4.20;0.60;;;;;;;17.18;100.00;100198.16;4947066;28;20031;-80
2023/07/09 09:58:30;;;;;;;2.83;0.82;;;;;;;17.24;100.00;100191.19;4959673;28;20043;-79
2023/07/09 10:01:01;;;;;;;3.17;0.55;;;;;;;17.25;100.00;100179.47;4955892;28;20035;-78
2023/07/09 10:03:38;;;;;;;3.60;0.60;;;;;;;17.35;100.00;100181.81;4935770;29;20095;-80
2023/07/09 10:06:18;;;;;;;2.28;0.50;;;;;;;17.48;100.00;100186.41;4994559;28;20039;-80
2023/07/09 10:09:02;;;;;;;2.80;0.40;;;;;;;17.41;100.00;100181.03;4952199;28;20137;-79
2023/07/09 10:11:39;;;;;;;3.22;0.50;;;;;;;17.39;100.00;100188.41;4971957;28;20028;-78
2023/07/09 10:14:19;;;;;;;2.45;0.60;;;;;;;17.46;100.00;100189.28;4952999;28;20042;-80
2023/07/09 10:16:49;;;;;;;2.05;0.50;;;;;;;17.59;100.00;100185.03;4995919;28;20038;-81
2023/07/09 10:19:29;;;;;;;2.95;0.90;;;;;;;17.71;100.00;100174.63;4938245;29;20398;-80
2023/07/09 10:22:06;;;;;;;1.80;0.43;;;;;;;17.83;100.00;100180.22;4955435;28;20039;-80
2023/07/09 10:25:01;;;;;;;3.72;0.35;;;;;;;18.02;100.00;100172.47;4963772;28;20183;-81
2023/07/09 10:28:16;;;;;;;4.70;0.50;;;;;;;18.11;100.00;100176.59;4964450;28;20079;-78
2023/07/09 10:30:52;;;;;;;3.88;0.50;;;;;;;18.21;100.00;100179.78;4917254;29;20078;-80
2023/07/09 10:33:45;;;;;;;3.90;0.50;;;;;;;18.42;100.00;100166.44;4971126;28;20062;-80
2023/07/09 10:36:32;;;;;;;7.13;0.50;;;;;;;18.55;100.00;100166.47;4938670;28;20116;-80
2023/07/09 10:39:10;;;;;;;3.08;0.65;;;;;;;18.63;100.00;100169.94;4965973;28;20039;-80
2023/07/09 10:41:38;;;;;;;4.50;0.73;;;;;;;18.63;100.00;100159.25;4952911;28;20065;-79
2023/07/09 10:44:08;;;;;;;3.28;0.30;;;;;;;18.65;100.00;100166.03;4924936;28;20460;-82
2023/07/09 10:46:38;;;;;;;4.35;0.65;;;;;;;18.85;100.00;100167.91;4951593;28;20039;-79
2023/07/09 10:49:09;;;;;;;4.13;0.40;;;;;;;18.80;100.00;100170.38;4935247;29;20066;-81
2023/07/09 10:51:43;;;;;;;4.55;0.43;;;;;;;18.68;100.00;100165.63;4937158;29;20125;-80
2023/07/09 10:54:49;;;;;;;0.70;0.25;;;;;;;18.53;100.00;100167.66;4948720;28;20055;-80
2023/07/09 10:57:21;;;;;;;3.93;0.50;;;;;;;18.47;100.00;100170.13;4934645;28;20082;-82
2023/07/09 10:59:49;;;;;;;2.83;0.60;;;;;;;18.69;100.00;100171.81;4952578;28;20477;-81
2023/07/09 11:02:25;;;;;;;3.63;0.57;;;;;;;18.81;100.00;100174.69;4951428;28;20035;-80
2023/07/09 11:04:57;;;;;;;3.50;0.57;;;;;;;18.85;100.00;100170.59;4945652;28;20085;-81
2023/07/09 11:07:35;;;;;;;6.05;1.00;;;;;;;19.01;100.00;100174.69;4950548;28;20042;-81
2023/07/09 11:10:14;;;;;;;7.00;0.63;;;;;;;19.01;100.00;100171.19;4935478;29;20043;-81
2023/07/09 11:12:45;;;;;;;5.75;0.75;;;;;;;18.85;100.00;100173.25;4950244;28;20034;-81
2023/07/09 11:15:16;;;;;;;4.10;0.40;;;;;;;18.76;100.00;100171.81;4946003;28;20047;-80
2023/07/09 11:17:46;;;;;;;2.17;0.43;;;;;;;18.67;100.00;100180.03;4949526;28;20118;-81
2023/07/09 11:20:34;;;;;;;2.83;0.50;;;;;;;18.55;100.00;100182.53;4950903;28;20037;-81